sensor_id;sensor_type;location;lat;lon;timestamp;P1;durP1;ratioP1;P2;durP2;ratioP2
74245;SDS011;62601;51.044;13.788;2023-12-20T00:00:43;3.40;;;3.10;;
74245;SDS011;62601;51.044;13.788;2023-12-20T00:03:05;2.95;;;2.65;;
74245;SDS011;62601;51.044;13.788;2023-12-20T00:05:26;4.13;;;3.72;;
74245;SDS011;62601;51.044;13.788;2023-12-20T00:07:47;3.90;;;3.08;;
74245;SDS011;62601;51.044;13.788;2023-12-20T00:10:09;3.20;;;2.90;;
74245;SDS011;62601;51.044;13.788;2023-12-20T00:12:30;2.70;;;2.50;;
74245;SDS011;62601;51.044;13.788;2023-12-20T00:14:52;3.00;;;2.75;;
74245;SDS011;62601;51.044;13.788;2023-12-20T00:17:13;3.30;;;3.00;;
74245;SDS011;62601;51.044;13.788;2023-12-20T00:19:34;3.25;;;2.90;;
74245;SDS011;62601;51.044;13.788;2023-12-20T00:21:56;3.13;;;2.60;;
74245;SDS011;62601;51.044;13.788;2023-12-20T00:24:18;4.75;;;2.80;;
74245;SDS011;62601;51.044;13.788;2023-12-20T00:26:39;3.03;;;2.72;;
74245;SDS011;62601;51.044;13.788;2023-12-20T00:29:01;3.50;;;3.08;;
74245;SDS011;62601;51.044;13.788;2023-12-20T00:31:22;3.25;;;2.50;;
74245;SDS011;62601;51.044;13.788;2023-12-20T00:33:42;2.20;;;2.00;;
74245;SDS011;62601;51.044;13.788;2023-12-20T00:36:04;2.72;;;2.53;;
74245;SDS011;62601;51.044;13.788;2023-12-20T00:38:25;2.53;;;2.08;;
74245;SDS011;62601;51.044;13.788;2023-12-20T00:40:47;2.42;;;2.20;;
74245;SDS011;62601;51.044;13.788;2023-12-20T00:43:08;2.20;;;2.00;;
74245;SDS011;62601;51.044;13.788;2023-12-20T00:45:30;2.35;;;2.13;;
74245;SDS011;62601;51.044;13.788;2023-12-20T00:47:51;2.30;;;2.10;;
74245;SDS011;62601;51.044;13.788;2023-12-20T00:50:12;2.55;;;2.35;;
74245;SDS011;62601;51.044;13.788;2023-12-20T00:52:32;2.63;;;2.03;;
74245;SDS011;62601;51.044;13.788;2023-12-20T00:54:53;2.30;;;2.10;;
74245;SDS011;62601;51.044;13.788;2023-12-20T00:57:15;1.77;;;1.67;;
74245;SDS011;62601;51.044;13.788;2023-12-20T00:59:36;2.10;;;1.90;;
74245;SDS011;62601;51.044;13.788;2023-12-20T01:01:56;1.83;;;1.73;;
74245;SDS011;62601;51.044;13.788;2023-12-20T01:04:18;1.88;;;1.70;;
74245;SDS011;62601;51.044;13.788;2023-12-20T01:06:38;2.03;;;1.80;;
74245;SDS011;62601;51.044;13.788;2023-12-20T01:08:59;1.95;;;1.75;;
74245;SDS011;62601;51.044;13.788;2023-12-20T01:11:20;1.95;;;1.75;;
74245;SDS011;62601;51.044;13.788;2023-12-20T01:13:42;2.40;;;1.40;;
74245;SDS011;62601;51.044;13.788;2023-12-20T01:16:03;2.33;;;2.13;;
74245;SDS011;62601;51.044;13.788;2023-12-20T01:18:25;1.40;;;1.30;;
74245;SDS011;62601;51.044;13.788;2023-12-20T01:20:45;2.20;;;1.40;;
74245;SDS011;62601;51.044;13.788;2023-12-20T01:23:07;2.10;;;1.90;;
74245;SDS011;62601;51.044;13.788;2023-12-20T01:25:27;1.85;;;1.75;;
74245;SDS011;62601;51.044;13.788;2023-12-20T01:27:49;1.70;;;1.60;;
74245;SDS011;62601;51.044;13.788;2023-12-20T01:30:11;1.38;;;1.27;;
74245;SDS011;62601;51.044;13.788;2023-12-20T01:32:31;2.58;;;1.70;;
74245;SDS011;62601;51.044;13.788;2023-12-20T01:34:51;1.77;;;1.63;;
74245;SDS011;62601;51.044;13.788;2023-12-20T01:37:11;1.42;;;1.33;;
74245;SDS011;62601;51.044;13.788;2023-12-20T01:39:32;1.30;;;1.20;;
74245;SDS011;62601;51.044;13.788;2023-12-20T01:41:54;1.55;;;1.45;;
74245;SDS011;62601;51.044;13.788;2023-12-20T01:44:14;1.63;;;1.20;;
74245;SDS011;62601;51.044;13.788;2023-12-20T01:46:35;1.50;;;1.20;;
74245;SDS011;62601;51.044;13.788;2023-12-20T01:48:57;1.40;;;1.30;;
74245;SDS011;62601;51.044;13.788;2023-12-20T01:51:19;2.45;;;1.63;;
74245;SDS011;62601;51.044;13.788;2023-12-20T01:53:41;1.15;;;1.05;;
74245;SDS011;62601;51.044;13.788;2023-12-20T01:56:02;1.73;;;1.30;;
74245;SDS011;62601;51.044;13.788;2023-12-20T01:58:23;1.73;;;1.45;;
74245;SDS011;62601;51.044;13.788;2023-12-20T02:00:44;1.42;;;1.20;;
74245;SDS011;62601;51.044;13.788;2023-12-20T02:03:04;1.02;;;0.93;;
74245;SDS011;62601;51.044;13.788;2023-12-20T02:05:24;1.65;;;1.40;;
74245;SDS011;62601;51.044;13.788;2023-12-20T02:07:45;1.00;;;0.90;;
74245;SDS011;62601;51.044;13.788;2023-12-20T02:10:05;1.60;;;1.10;;
74245;SDS011;62601;51.044;13.788;2023-12-20T02:12:25;1.13;;;1.02;;
74245;SDS011;62601;51.044;13.788;2023-12-20T02:14:45;1.33;;;1.23;;
74245;SDS011;62601;51.044;13.788;2023-12-20T02:17:05;1.42;;;1.25;;
74245;SDS011;62601;51.044;13.788;2023-12-20T02:19:25;0.90;;;0.90;;
74245;SDS011;62601;51.044;13.788;2023-12-20T02:21:45;1.20;;;1.10;;
74245;SDS011;62601;51.044;13.788;2023-12-20T02:24:09;1.05;;;0.95;;
74245;SDS011;62601;51.044;13.788;2023-12-20T02:26:29;0.75;;;0.75;;
74245;SDS011;62601;51.044;13.788;2023-12-20T02:28:49;0.80;;;0.80;;
74245;SDS011;62601;51.044;13.788;2023-12-20T02:31:09;0.90;;;0.90;;
74245;SDS011;62601;51.044;13.788;2023-12-20T02:33:29;1.08;;;1.05;;
74245;SDS011;62601;51.044;13.788;2023-12-20T02:35:49;0.90;;;0.90;;
74245;SDS011;62601;51.044;13.788;2023-12-20T02:38:09;1.30;;;1.15;;
74245;SDS011;62601;51.044;13.788;2023-12-20T02:40:29;0.80;;;0.80;;
74245;SDS011;62601;51.044;13.788;2023-12-20T02:42:49;0.95;;;0.90;;
74245;SDS011;62601;51.044;13.788;2023-12-20T02:45:10;1.15;;;1.05;;
74245;SDS011;62601;51.044;13.788;2023-12-20T02:47:30;1.35;;;1.27;;
74245;SDS011;62601;51.044;13.788;2023-12-20T02:49:50;0.80;;;0.80;;
74245;SDS011;62601;51.044;13.788;2023-12-20T02:52:10;0.98;;;0.88;;
74245;SDS011;62601;51.044;13.788;2023-12-20T02:54:30;1.08;;;0.95;;
74245;SDS011;62601;51.044;13.788;2023-12-20T02:56:50;0.95;;;0.85;;
74245;SDS011;62601;51.044;13.788;2023-12-20T02:59:10;0.93;;;0.93;;
74245;SDS011;62601;51.044;13.788;2023-12-20T03:01:30;0.73;;;0.70;;
74245;SDS011;62601;51.044;13.788;2023-12-20T03:03:50;0.85;;;0.85;;
74245;SDS011;62601;51.044;13.788;2023-12-20T03:06:11;0.85;;;0.57;;
74245;SDS011;62601;51.044;13.788;2023-12-20T03:08:31;0.85;;;0.73;;
74245;SDS011;62601;51.044;13.788;2023-12-20T03:10:51;0.70;;;0.70;;
74245;SDS011;62601;51.044;13.788;2023-12-20T03:13:11;0.77;;;0.70;;
74245;SDS011;62601;51.044;13.788;2023-12-20T03:15:31;1.65;;;1.45;;
74245;SDS011;62601;51.044;13.788;2023-12-20T03:17:51;0.70;;;0.70;;
74245;SDS011;62601;51.044;13.788;2023-12-20T03:20:11;0.82;;;0.82;;
74245;SDS011;62601;51.044;13.788;2023-12-20T03:22:31;0.88;;;0.88;;
74245;SDS011;62601;51.044;13.788;2023-12-20T03:24:51;1.23;;;0.90;;
74245;SDS011;62601;51.044;13.788;2023-12-20T03:27:11;0.80;;;0.73;;
74245;SDS011;62601;51.044;13.788;2023-12-20T03:29:31;1.27;;;0.80;;
74245;SDS011;62601;51.044;13.788;2023-12-20T03:31:51;0.63;;;0.60;;
74245;SDS011;62601;51.044;13.788;2023-12-20T03:34:12;0.75;;;0.75;;
74245;SDS011;62601;51.044;13.788;2023-12-20T03:36:35;0.70;;;0.60;;
74245;SDS011;62601;51.044;13.788;2023-12-20T03:38:55;0.73;;;0.70;;
74245;SDS011;62601;51.044;13.788;2023-12-20T03:41:15;0.88;;;0.80;;
74245;SDS011;62601;51.044;13.788;2023-12-20T03:43:35;0.70;;;0.70;;
74245;SDS011;62601;51.044;13.788;2023-12-20T03:45:55;1.02;;;0.82;;
74245;SDS011;62601;51.044;13.788;2023-12-20T03:48:15;0.82;;;0.82;;
74245;SDS011;62601;51.044;13.788;2023-12-20T03:50:35;0.70;;;0.70;;
74245;SDS011;62601;51.044;13.788;2023-12-20T03:52:55;0.63;;;0.60;;
74245;SDS011;62601;51.044;13.788;2023-12-20T03:55:15;1.33;;;1.23;;
74245;SDS011;62601;51.044;13.788;2023-12-20T03:57:35;0.63;;;0.63;;
74245;SDS011;62601;51.044;13.788;2023-12-20T03:59:56;0.90;;;0.60;;
74245;SDS011;62601;51.044;13.788;2023-12-20T04:02:16;0.80;;;0.57;;
74245;SDS011;62601;51.044;13.788;2023-12-20T04:04:36;0.82;;;0.70;;
74245;SDS011;62601;51.044;13.788;2023-12-20T04:06:56;0.60;;;0.50;;
74245;SDS011;62601;51.044;13.788;2023-12-20T04:09:16;0.70;;;0.60;;
74245;SDS011;62601;51.044;13.788;2023-12-20T04:11:36;0.75;;;0.75;;
74245;SDS011;62601;51.044;13.788;2023-12-20T04:13:56;0.60;;;0.60;;
74245;SDS011;62601;51.044;13.788;2023-12-20T04:16:16;0.50;;;0.50;;
74245;SDS011;62601;51.044;13.788;2023-12-20T04:18:36;0.73;;;0.50;;
74245;SDS011;62601;51.044;13.788;2023-12-20T04:20:56;0.60;;;0.60;;
74245;SDS011;62601;51.044;13.788;2023-12-20T04:23:16;0.60;;;0.60;;
74245;SDS011;62601;51.044;13.788;2023-12-20T04:25:37;0.85;;;0.80;;
74245;SDS011;62601;51.044;13.788;2023-12-20T04:27:57;0.80;;;0.65;;
74245;SDS011;62601;51.044;13.788;2023-12-20T04:30:17;0.60;;;0.60;;
74245;SDS011;62601;51.044;13.788;2023-12-20T04:32:37;0.60;;;0.57;;
74245;SDS011;62601;51.044;13.788;2023-12-20T04:34:57;0.60;;;0.55;;
74245;SDS011;62601;51.044;13.788;2023-12-20T04:37:17;0.60;;;0.60;;
74245;SDS011;62601;51.044;13.788;2023-12-20T04:39:37;1.10;;;0.98;;
74245;SDS011;62601;51.044;13.788;2023-12-20T04:41:57;0.60;;;0.60;;
74245;SDS011;62601;51.044;13.788;2023-12-20T04:44:17;0.60;;;0.60;;
74245;SDS011;62601;51.044;13.788;2023-12-20T04:46:37;0.93;;;0.60;;
74245;SDS011;62601;51.044;13.788;2023-12-20T04:48:58;0.60;;;0.60;;
74245;SDS011;62601;51.044;13.788;2023-12-20T04:51:18;2.25;;;0.80;;
74245;SDS011;62601;51.044;13.788;2023-12-20T04:53:38;0.70;;;0.70;;
74245;SDS011;62601;51.044;13.788;2023-12-20T04:55:58;0.80;;;0.80;;
74245;SDS011;62601;51.044;13.788;2023-12-20T04:58:18;1.25;;;0.85;;
74245;SDS011;62601;51.044;13.788;2023-12-20T05:00:38;0.80;;;0.60;;
74245;SDS011;62601;51.044;13.788;2023-12-20T05:02:58;0.70;;;0.70;;
74245;SDS011;62601;51.044;13.788;2023-12-20T05:05:18;0.70;;;0.68;;
74245;SDS011;62601;51.044;13.788;2023-12-20T05:07:39;1.83;;;1.45;;
74245;SDS011;62601;51.044;13.788;2023-12-20T05:09:59;1.35;;;0.80;;
74245;SDS011;62601;51.044;13.788;2023-12-20T05:12:19;0.60;;;0.60;;
74245;SDS011;62601;51.044;13.788;2023-12-20T05:14:39;0.88;;;0.80;;
74245;SDS011;62601;51.044;13.788;2023-12-20T05:16:59;0.77;;;0.77;;
74245;SDS011;62601;51.044;13.788;2023-12-20T05:19:19;0.90;;;0.80;;
74245;SDS011;62601;51.044;13.788;2023-12-20T05:21:39;0.63;;;0.63;;
74245;SDS011;62601;51.044;13.788;2023-12-20T05:23:59;1.50;;;0.77;;
74245;SDS011;62601;51.044;13.788;2023-12-20T05:26:20;0.68;;;0.68;;
74245;SDS011;62601;51.044;13.788;2023-12-20T05:28:40;0.60;;;0.60;;
74245;SDS011;62601;51.044;13.788;2023-12-20T05:31:00;0.55;;;0.55;;
74245;SDS011;62601;51.044;13.788;2023-12-20T05:33:20;0.60;;;0.60;;
74245;SDS011;62601;51.044;13.788;2023-12-20T05:35:40;0.60;;;0.60;;
74245;SDS011;62601;51.044;13.788;2023-12-20T05:38:00;1.50;;;0.90;;
74245;SDS011;62601;51.044;13.788;2023-12-20T05:40:20;2.58;;;0.80;;
74245;SDS011;62601;51.044;13.788;2023-12-20T05:42:40;0.60;;;0.50;;
74245;SDS011;62601;51.044;13.788;2023-12-20T05:45:00;0.50;;;0.50;;
74245;SDS011;62601;51.044;13.788;2023-12-20T05:47:20;0.73;;;0.50;;
74245;SDS011;62601;51.044;13.788;2023-12-20T05:49:40;0.82;;;0.60;;
74245;SDS011;62601;51.044;13.788;2023-12-20T05:52:01;0.88;;;0.57;;
74245;SDS011;62601;51.044;13.788;2023-12-20T05:54:21;0.80;;;0.77;;
74245;SDS011;62601;51.044;13.788;2023-12-20T05:56:41;0.70;;;0.68;;
74245;SDS011;62601;51.044;13.788;2023-12-20T05:59:01;0.80;;;0.80;;
74245;SDS011;62601;51.044;13.788;2023-12-20T06:01:21;0.90;;;0.60;;
74245;SDS011;62601;51.044;13.788;2023-12-20T06:03:41;1.30;;;1.00;;
74245;SDS011;62601;51.044;13.788;2023-12-20T06:06:08;0.60;;;0.55;;
74245;SDS011;62601;51.044;13.788;2023-12-20T06:08:28;0.70;;;0.60;;
74245;SDS011;62601;51.044;13.788;2023-12-20T06:10:48;0.70;;;0.70;;
74245;SDS011;62601;51.044;13.788;2023-12-20T06:13:08;0.70;;;0.70;;
74245;SDS011;62601;51.044;13.788;2023-12-20T06:15:28;0.70;;;0.70;;
74245;SDS011;62601;51.044;13.788;2023-12-20T06:17:48;0.70;;;0.70;;
74245;SDS011;62601;51.044;13.788;2023-12-20T06:20:09;1.48;;;0.60;;
74245;SDS011;62601;51.044;13.788;2023-12-20T06:22:29;0.70;;;0.70;;
74245;SDS011;62601;51.044;13.788;2023-12-20T06:24:49;0.95;;;0.90;;
74245;SDS011;62601;51.044;13.788;2023-12-20T06:27:09;0.90;;;0.90;;
74245;SDS011;62601;51.044;13.788;2023-12-20T06:29:29;0.80;;;0.80;;
74245;SDS011;62601;51.044;13.788;2023-12-20T06:31:49;0.93;;;0.88;;
74245;SDS011;62601;51.044;13.788;2023-12-20T06:34:09;0.98;;;0.70;;
74245;SDS011;62601;51.044;13.788;2023-12-20T06:36:32;4.35;;;1.23;;
74245;SDS011;62601;51.044;13.788;2023-12-20T06:38:52;1.23;;;1.13;;
74245;SDS011;62601;51.044;13.788;2023-12-20T06:41:13;1.10;;;1.10;;
74245;SDS011;62601;51.044;13.788;2023-12-20T06:43:33;1.27;;;1.27;;
74245;SDS011;62601;51.044;13.788;2023-12-20T06:45:53;4.68;;;1.52;;
74245;SDS011;62601;51.044;13.788;2023-12-20T06:48:13;2.17;;;1.27;;
74245;SDS011;62601;51.044;13.788;2023-12-20T06:50:33;1.10;;;1.00;;
74245;SDS011;62601;51.044;13.788;2023-12-20T06:52:53;1.58;;;1.45;;
74245;SDS011;62601;51.044;13.788;2023-12-20T06:55:13;1.55;;;1.45;;
74245;SDS011;62601;51.044;13.788;2023-12-20T06:57:33;1.80;;;1.70;;
74245;SDS011;62601;51.044;13.788;2023-12-20T06:59:53;3.95;;;1.60;;
74245;SDS011;62601;51.044;13.788;2023-12-20T07:02:13;1.50;;;1.40;;
74245;SDS011;62601;51.044;13.788;2023-12-20T07:04:34;1.92;;;1.73;;
74245;SDS011;62601;51.044;13.788;2023-12-20T07:06:54;3.25;;;1.35;;
74245;SDS011;62601;51.044;13.788;2023-12-20T07:09:14;1.75;;;1.65;;
74245;SDS011;62601;51.044;13.788;2023-12-20T07:11:34;1.75;;;1.65;;
74245;SDS011;62601;51.044;13.788;2023-12-20T07:13:54;2.03;;;1.80;;
74245;SDS011;62601;51.044;13.788;2023-12-20T07:16:14;2.10;;;2.00;;
74245;SDS011;62601;51.044;13.788;2023-12-20T07:18:34;3.50;;;1.85;;
74245;SDS011;62601;51.044;13.788;2023-12-20T07:20:54;2.20;;;1.98;;
74245;SDS011;62601;51.044;13.788;2023-12-20T07:23:14;2.17;;;2.00;;
74245;SDS011;62601;51.044;13.788;2023-12-20T07:25:35;1.83;;;1.73;;
74245;SDS011;62601;51.044;13.788;2023-12-20T07:27:55;2.25;;;1.70;;
74245;SDS011;62601;51.044;13.788;2023-12-20T07:30:15;2.05;;;1.95;;
74245;SDS011;62601;51.044;13.788;2023-12-20T07:32:35;1.88;;;1.77;;
74245;SDS011;62601;51.044;13.788;2023-12-20T07:34:55;2.40;;;2.25;;
74245;SDS011;62601;51.044;13.788;2023-12-20T07:37:15;2.20;;;2.00;;
74245;SDS011;62601;51.044;13.788;2023-12-20T07:39:35;2.47;;;2.15;;
74245;SDS011;62601;51.044;13.788;2023-12-20T07:41:55;2.30;;;2.10;;
74245;SDS011;62601;51.044;13.788;2023-12-20T07:44:16;2.50;;;2.30;;
74245;SDS011;62601;51.044;13.788;2023-12-20T07:46:36;2.45;;;2.00;;
74245;SDS011;62601;51.044;13.788;2023-12-20T07:48:56;2.17;;;2.00;;
74245;SDS011;62601;51.044;13.788;2023-12-20T07:51:16;2.95;;;2.55;;
74245;SDS011;62601;51.044;13.788;2023-12-20T07:53:36;2.72;;;2.50;;
74245;SDS011;62601;51.044;13.788;2023-12-20T07:55:56;2.47;;;2.25;;
74245;SDS011;62601;51.044;13.788;2023-12-20T07:58:16;2.38;;;2.15;;
74245;SDS011;62601;51.044;13.788;2023-12-20T08:00:36;2.50;;;2.30;;
74245;SDS011;62601;51.044;13.788;2023-12-20T08:02:56;2.38;;;2.17;;
74245;SDS011;62601;51.044;13.788;2023-12-20T08:05:16;1.85;;;1.75;;
74245;SDS011;62601;51.044;13.788;2023-12-20T08:07:36;2.05;;;1.85;;
74245;SDS011;62601;51.044;13.788;2023-12-20T08:09:57;2.35;;;2.15;;
74245;SDS011;62601;51.044;13.788;2023-12-20T08:12:17;2.00;;;1.80;;
74245;SDS011;62601;51.044;13.788;2023-12-20T08:14:37;2.30;;;2.10;;
74245;SDS011;62601;51.044;13.788;2023-12-20T08:16:57;3.22;;;2.55;;
74245;SDS011;62601;51.044;13.788;2023-12-20T08:19:17;3.13;;;2.08;;
74245;SDS011;62601;51.044;13.788;2023-12-20T08:21:37;2.42;;;1.85;;
74245;SDS011;62601;51.044;13.788;2023-12-20T08:23:57;2.10;;;1.90;;
74245;SDS011;62601;51.044;13.788;2023-12-20T08:26:20;2.05;;;1.92;;
74245;SDS011;62601;51.044;13.788;2023-12-20T08:28:41;2.17;;;1.48;;
74245;SDS011;62601;51.044;13.788;2023-12-20T08:31:01;2.08;;;1.30;;
74245;SDS011;62601;51.044;13.788;2023-12-20T08:33:21;1.90;;;1.77;;
74245;SDS011;62601;51.044;13.788;2023-12-20T08:35:41;1.95;;;1.63;;
74245;SDS011;62601;51.044;13.788;2023-12-20T08:38:01;3.50;;;2.10;;
74245;SDS011;62601;51.044;13.788;2023-12-20T08:40:21;2.97;;;1.52;;
74245;SDS011;62601;51.044;13.788;2023-12-20T08:42:41;2.88;;;1.67;;
74245;SDS011;62601;51.044;13.788;2023-12-20T08:45:01;2.20;;;1.42;;
74245;SDS011;62601;51.044;13.788;2023-12-20T08:47:21;1.63;;;1.52;;
74245;SDS011;62601;51.044;13.788;2023-12-20T08:49:42;3.45;;;2.00;;
74245;SDS011;62601;51.044;13.788;2023-12-20T08:52:02;1.63;;;1.10;;
74245;SDS011;62601;51.044;13.788;2023-12-20T08:54:22;2.17;;;1.20;;
74245;SDS011;62601;51.044;13.788;2023-12-20T08:56:42;2.53;;;1.52;;
74245;SDS011;62601;51.044;13.788;2023-12-20T08:59:02;4.63;;;1.40;;
74245;SDS011;62601;51.044;13.788;2023-12-20T09:01:22;1.92;;;1.30;;
74245;SDS011;62601;51.044;13.788;2023-12-20T09:03:42;6.05;;;1.50;;
74245;SDS011;62601;51.044;13.788;2023-12-20T09:06:03;1.20;;;1.10;;
74245;SDS011;62601;51.044;13.788;2023-12-20T09:08:23;1.83;;;1.13;;
74245;SDS011;62601;51.044;13.788;2023-12-20T09:10:43;1.58;;;1.05;;
74245;SDS011;62601;51.044;13.788;2023-12-20T09:13:04;2.22;;;1.10;;
74245;SDS011;62601;51.044;13.788;2023-12-20T09:15:24;3.03;;;1.38;;
74245;SDS011;62601;51.044;13.788;2023-12-20T09:17:45;1.15;;;1.00;;
74245;SDS011;62601;51.044;13.788;2023-12-20T09:20:05;4.80;;;1.10;;
74245;SDS011;62601;51.044;13.788;2023-12-20T09:22:25;3.60;;;1.10;;
74245;SDS011;62601;51.044;13.788;2023-12-20T09:24:45;4.40;;;1.10;;
74245;SDS011;62601;51.044;13.788;2023-12-20T09:27:05;2.40;;;1.48;;
74245;SDS011;62601;51.044;13.788;2023-12-20T09:29:25;1.80;;;1.10;;
74245;SDS011;62601;51.044;13.788;2023-12-20T09:31:46;1.15;;;1.10;;
74245;SDS011;62601;51.044;13.788;2023-12-20T09:34:06;1.42;;;1.02;;
74245;SDS011;62601;51.044;13.788;2023-12-20T09:36:26;1.23;;;0.90;;
74245;SDS011;62601;51.044;13.788;2023-12-20T09:38:46;2.80;;;1.40;;
74245;SDS011;62601;51.044;13.788;2023-12-20T09:41:06;3.03;;;1.23;;
74245;SDS011;62601;51.044;13.788;2023-12-20T09:43:29;1.40;;;1.10;;
74245;SDS011;62601;51.044;13.788;2023-12-20T09:45:49;3.25;;;1.85;;
74245;SDS011;62601;51.044;13.788;2023-12-20T09:48:12;3.97;;;1.42;;
74245;SDS011;62601;51.044;13.788;2023-12-20T09:50:32;1.45;;;1.35;;
74245;SDS011;62601;51.044;13.788;2023-12-20T09:52:53;1.83;;;1.45;;
74245;SDS011;62601;51.044;13.788;2023-12-20T09:55:17;4.45;;;1.30;;
74245;SDS011;62601;51.044;13.788;2023-12-20T09:57:37;4.35;;;1.10;;
74245;SDS011;62601;51.044;13.788;2023-12-20T09:59:57;1.85;;;1.42;;
74245;SDS011;62601;51.044;13.788;2023-12-20T10:02:18;3.28;;;1.10;;
74245;SDS011;62601;51.044;13.788;2023-12-20T10:04:42;1.17;;;1.00;;
74245;SDS011;62601;51.044;13.788;2023-12-20T10:07:06;3.08;;;1.50;;
74245;SDS011;62601;51.044;13.788;2023-12-20T10:09:26;1.50;;;1.10;;
74245;SDS011;62601;51.044;13.788;2023-12-20T10:11:46;2.28;;;1.10;;
74245;SDS011;62601;51.044;13.788;2023-12-20T10:14:06;1.20;;;1.10;;
74245;SDS011;62601;51.044;13.788;2023-12-20T10:16:27;2.60;;;1.10;;
74245;SDS011;62601;51.044;13.788;2023-12-20T10:18:47;1.48;;;1.10;;
74245;SDS011;62601;51.044;13.788;2023-12-20T10:21:07;2.95;;;1.13;;
74245;SDS011;62601;51.044;13.788;2023-12-20T10:23:27;1.70;;;1.25;;
74245;SDS011;62601;51.044;13.788;2023-12-20T10:25:57;3.38;;;1.63;;
74245;SDS011;62601;51.044;13.788;2023-12-20T10:28:17;3.78;;;1.60;;
74245;SDS011;62601;51.044;13.788;2023-12-20T10:30:37;3.00;;;1.13;;
74245;SDS011;62601;51.044;13.788;2023-12-20T10:32:58;2.45;;;1.45;;
74245;SDS011;62601;51.044;13.788;2023-12-20T10:35:19;2.55;;;1.13;;
74245;SDS011;62601;51.044;13.788;2023-12-20T10:37:39;1.60;;;1.25;;
74245;SDS011;62601;51.044;13.788;2023-12-20T10:39:59;1.90;;;1.33;;
74245;SDS011;62601;51.044;13.788;2023-12-20T10:42:22;1.60;;;1.23;;
74245;SDS011;62601;51.044;13.788;2023-12-20T10:44:42;4.32;;;1.17;;
74245;SDS011;62601;51.044;13.788;2023-12-20T10:47:03;4.22;;;1.27;;
74245;SDS011;62601;51.044;13.788;2023-12-20T10:49:24;2.67;;;1.23;;
74245;SDS011;62601;51.044;13.788;2023-12-20T10:51:45;4.15;;;1.50;;
74245;SDS011;62601;51.044;13.788;2023-12-20T10:54:07;3.45;;;1.48;;
74245;SDS011;62601;51.044;13.788;2023-12-20T10:56:27;2.08;;;1.45;;
74245;SDS011;62601;51.044;13.788;2023-12-20T10:58:51;4.40;;;1.30;;
74245;SDS011;62601;51.044;13.788;2023-12-20T11:01:12;2.67;;;1.30;;
74245;SDS011;62601;51.044;13.788;2023-12-20T11:03:34;2.33;;;1.60;;
74245;SDS011;62601;51.044;13.788;2023-12-20T11:05:59;5.78;;;2.22;;
74245;SDS011;62601;51.044;13.788;2023-12-20T11:10:51;3.55;;;1.50;;
74245;SDS011;62601;51.044;13.788;2023-12-20T11:13:23;5.82;;;1.67;;
74245;SDS011;62601;51.044;13.788;2023-12-20T11:15:45;1.90;;;1.70;;
74245;SDS011;62601;51.044;13.788;2023-12-20T11:18:05;5.32;;;1.35;;
74245;SDS011;62601;51.044;13.788;2023-12-20T11:20:39;2.60;;;1.70;;
74245;SDS011;62601;51.044;13.788;2023-12-20T11:22:59;4.05;;;1.55;;
74245;SDS011;62601;51.044;13.788;2023-12-20T11:25:19;4.38;;;2.03;;
74245;SDS011;62601;51.044;13.788;2023-12-20T11:27:40;5.90;;;1.65;;
74245;SDS011;62601;51.044;13.788;2023-12-20T11:30:02;3.85;;;1.23;;
74245;SDS011;62601;51.044;13.788;2023-12-20T11:34:45;2.13;;;1.33;;
74245;SDS011;62601;51.044;13.788;2023-12-20T11:37:05;3.35;;;1.70;;
74245;SDS011;62601;51.044;13.788;2023-12-20T11:39:27;3.47;;;1.60;;
74245;SDS011;62601;51.044;13.788;2023-12-20T11:41:48;2.78;;;1.65;;
74245;SDS011;62601;51.044;13.788;2023-12-20T11:44:08;2.03;;;1.33;;
74245;SDS011;62601;51.044;13.788;2023-12-20T11:46:29;4.05;;;1.30;;
74245;SDS011;62601;51.044;13.788;2023-12-20T11:48:49;2.85;;;1.67;;
74245;SDS011;62601;51.044;13.788;2023-12-20T11:51:10;2.15;;;1.60;;
74245;SDS011;62601;51.044;13.788;2023-12-20T11:53:30;1.80;;;1.50;;
74245;SDS011;62601;51.044;13.788;2023-12-20T11:55:50;6.53;;;1.48;;
74245;SDS011;62601;51.044;13.788;2023-12-20T11:58:10;6.00;;;1.20;;
74245;SDS011;62601;51.044;13.788;2023-12-20T12:00:30;2.95;;;1.80;;
74245;SDS011;62601;51.044;13.788;2023-12-20T12:02:57;5.68;;;1.77;;
74245;SDS011;62601;51.044;13.788;2023-12-20T12:05:17;2.50;;;1.42;;
74245;SDS011;62601;51.044;13.788;2023-12-20T12:07:37;7.85;;;2.05;;
74245;SDS011;62601;51.044;13.788;2023-12-20T12:09:57;3.08;;;1.65;;
74245;SDS011;62601;51.044;13.788;2023-12-20T12:12:18;5.45;;;1.67;;
74245;SDS011;62601;51.044;13.788;2023-12-20T12:14:38;5.80;;;1.30;;
74245;SDS011;62601;51.044;13.788;2023-12-20T12:16:59;2.25;;;1.38;;
74245;SDS011;62601;51.044;13.788;2023-12-20T12:19:22;3.95;;;1.60;;
74245;SDS011;62601;51.044;13.788;2023-12-20T12:21:42;2.13;;;1.60;;
74245;SDS011;62601;51.044;13.788;2023-12-20T12:24:06;2.03;;;1.60;;
74245;SDS011;62601;51.044;13.788;2023-12-20T12:26:27;4.50;;;1.60;;
74245;SDS011;62601;51.044;13.788;2023-12-20T12:28:49;2.55;;;1.40;;
74245;SDS011;62601;51.044;13.788;2023-12-20T12:31:14;2.70;;;1.30;;
74245;SDS011;62601;51.044;13.788;2023-12-20T12:33:34;2.72;;;1.50;;
74245;SDS011;62601;51.044;13.788;2023-12-20T12:35:54;2.13;;;1.30;;
74245;SDS011;62601;51.044;13.788;2023-12-20T12:38:14;2.25;;;1.42;;
74245;SDS011;62601;51.044;13.788;2023-12-20T12:40:34;2.10;;;1.40;;
74245;SDS011;62601;51.044;13.788;2023-12-20T12:42:54;2.17;;;1.23;;
74245;SDS011;62601;51.044;13.788;2023-12-20T12:45:15;4.00;;;1.20;;
74245;SDS011;62601;51.044;13.788;2023-12-20T12:47:35;2.42;;;1.48;;
74245;SDS011;62601;51.044;13.788;2023-12-20T12:49:55;2.00;;;1.33;;
74245;SDS011;62601;51.044;13.788;2023-12-20T12:52:15;3.05;;;1.50;;
74245;SDS011;62601;51.044;13.788;2023-12-20T12:54:35;4.70;;;1.45;;
74245;SDS011;62601;51.044;13.788;2023-12-20T12:56:56;3.22;;;1.20;;
74245;SDS011;62601;51.044;13.788;2023-12-20T12:59:16;2.65;;;1.15;;
74245;SDS011;62601;51.044;13.788;2023-12-20T13:01:36;1.83;;;1.50;;
74245;SDS011;62601;51.044;13.788;2023-12-20T13:03:56;2.50;;;1.70;;
74245;SDS011;62601;51.044;13.788;2023-12-20T13:06:16;2.72;;;1.42;;
74245;SDS011;62601;51.044;13.788;2023-12-20T13:08:36;3.38;;;1.40;;
74245;SDS011;62601;51.044;13.788;2023-12-20T13:10:56;2.33;;;1.25;;
74245;SDS011;62601;51.044;13.788;2023-12-20T13:13:17;4.22;;;1.35;;
74245;SDS011;62601;51.044;13.788;2023-12-20T13:15:37;3.13;;;1.25;;
74245;SDS011;62601;51.044;13.788;2023-12-20T13:17:57;3.00;;;1.55;;
74245;SDS011;62601;51.044;13.788;2023-12-20T13:20:17;9.48;;;2.72;;
74245;SDS011;62601;51.044;13.788;2023-12-20T13:22:37;2.20;;;1.23;;
74245;SDS011;62601;51.044;13.788;2023-12-20T13:24:57;2.47;;;1.30;;
74245;SDS011;62601;51.044;13.788;2023-12-20T13:27:17;2.72;;;1.38;;
74245;SDS011;62601;51.044;13.788;2023-12-20T13:29:37;4.15;;;1.48;;
74245;SDS011;62601;51.044;13.788;2023-12-20T13:31:57;2.60;;;1.48;;
74245;SDS011;62601;51.044;13.788;2023-12-20T13:34:18;6.40;;;2.85;;
74245;SDS011;62601;51.044;13.788;2023-12-20T13:36:38;3.38;;;1.25;;
74245;SDS011;62601;51.044;13.788;2023-12-20T13:38:58;1.88;;;1.55;;
74245;SDS011;62601;51.044;13.788;2023-12-20T13:41:18;2.50;;;1.30;;
74245;SDS011;62601;51.044;13.788;2023-12-20T13:43:38;2.33;;;1.35;;
74245;SDS011;62601;51.044;13.788;2023-12-20T13:45:58;2.72;;;1.40;;
74245;SDS011;62601;51.044;13.788;2023-12-20T13:48:19;3.92;;;1.60;;
74245;SDS011;62601;51.044;13.788;2023-12-20T13:50:39;5.32;;;1.58;;
74245;SDS011;62601;51.044;13.788;2023-12-20T13:52:59;3.28;;;1.38;;
74245;SDS011;62601;51.044;13.788;2023-12-20T13:55:19;6.47;;;1.42;;
74245;SDS011;62601;51.044;13.788;2023-12-20T13:57:39;3.40;;;1.42;;